Time;durP1;ratioP1;P1;durP2;ratioP2;P2;SDS_P1;SDS_P2;PMS_P1;PMS_P2;Temp;Humidity;BMP_temperature;BMP_pressure;BME280_temperature;BME280_humidity;BME280_pressure;Samples;Min_cycle;Max_cycle;Signal;HPM_P1;HPM_P2
2022/09/20 00:01:35;;;;;;;17.27;8.37;;;9.30;99.90;;;;;;2615005;39;20521;-70
2022/09/20 00:07:23;;;;;;;14.52;8.40;;;9.50;99.90;;;;;;2615320;54;20226;-70
2022/09/20 00:13:12;;;;;;;17.50;8.50;;;9.40;99.90;;;;;;2615160;54;20168;-69
2022/09/20 00:19:04;;;;;;;14.97;8.00;;;9.40;99.90;;;;;;2615263;39;20745;-69
2022/09/20 00:24:52;;;;;;;19.50;8.43;;;9.50;99.90;;;;;;2614301;54;20597;-70
2022/09/20 00:40:19;;;;;;;15.37;7.60;;;8.80;99.90;;;;;;2614915;39;20765;-71
2022/09/20 00:56:54;;;;;;;15.00;7.87;;;9.60;99.90;;;;;;2615154;54;20415;-70
2022/09/20 01:02:47;;;;;;;14.60;8.47;;;9.80;99.90;;;;;;2615015;54;20400;-70
2022/09/20 01:08:36;;;;;;;16.30;7.57;;;9.80;99.90;;;;;;2614477;54;20404;-69
2022/09/20 01:14:25;;;;;;;16.90;7.33;;;9.70;99.90;;;;;;2615282;54;20466;-70
2022/09/20 01:30:42;;;;;;;16.17;8.33;;;9.60;99.90;;;;;;2613731;54;20185;-71
2022/09/20 01:43:53;;;;;;;20.13;7.47;;;9.40;99.90;;;;;;2613225;54;20436;-70
2022/09/20 01:49:49;;;;;;;16.17;8.20;;;9.30;99.90;;;;;;2613940;54;20378;-68
2022/09/20 01:55:55;;;;;;;30.23;8.03;;;9.30;99.90;;;;;;2613594;54;20523;-71
2022/09/20 02:25:01;;;;;;;17.90;9.03;;;9.20;99.90;;;;;;2614470;54;20161;-75
2022/09/20 02:37:50;;;;;;;14.17;9.37;;;9.20;99.90;;;;;;2614160;54;20397;-74
2022/09/20 02:43:40;;;;;;;24.37;11.00;;;8.90;99.90;;;;;;2614234;54;20366;-75
2022/09/20 02:49:52;;;;;;;26.70;9.00;;;8.60;99.90;;;;;;2614338;54;20499;-75
2022/09/20 03:02:00;;;;;;;14.80;10.07;;;8.50;99.90;;;;;;2615471;54;20391;-75
2022/09/20 03:14:21;;;;;;;14.27;9.30;;;8.20;99.90;;;;;;2615107;54;20366;-75
2022/09/20 03:20:24;;;;;;;20.23;10.00;;;8.00;99.90;;;;;;2615445;54;20394;-75
2022/09/20 03:26:15;;;;;;;25.07;11.27;;;8.00;99.90;;;;;;2614887;54;20483;-75
2022/09/20 03:35:43;;;;;;;16.77;10.80;;;8.00;99.90;;;;;;2615422;54;20378;-75
2022/09/20 03:41:40;;;;;;;29.23;11.67;;;7.80;99.90;;;;;;2616051;39;20462;-76
2022/09/20 03:47:41;;;;;;;14.90;11.27;;;7.90;99.90;;;;;;2615202;54;20499;-75
2022/09/20 03:53:29;;;;;;;20.85;11.07;;;7.90;99.90;;;;;;2615623;54;20473;-74
2022/09/20 03:59:42;;;;;;;23.63;12.27;;;8.00;99.90;;;;;;2615545;54;20284;-76
2022/09/20 04:05:39;;;;;;;28.75;13.90;;;8.10;99.90;;;;;;2615350;47;20397;-75
2022/09/20 04:25:01;;;;;;;26.73;13.60;;;8.30;99.90;;;;;;2614627;54;20361;-75
2022/09/20 04:30:55;;;;;;;24.55;12.75;;;8.50;99.90;;;;;;2615198;54;20382;-74
2022/09/20 04:36:56;;;;;;;22.90;12.80;;;8.80;99.90;;;;;;2614644;54;20550;-77
2022/09/20 04:42:50;;;;;;;17.97;13.07;;;9.10;99.90;;;;;;2615316;54;20142;-77
2022/09/20 04:59:37;;;;;;;25.37;15.80;;;9.40;99.90;;;;;;2615434;54;20457;-75
2022/09/20 05:05:31;;;;;;;35.00;13.57;;;9.70;99.90;;;;;;2615829;54;20409;-75
2022/09/20 05:12:01;;;;;;;24.43;12.90;;;9.60;99.90;;;;;;2615050;54;20183;-75
2022/09/20 05:18:11;;;;;;;25.87;14.57;;;9.60;99.90;;;;;;2614744;54;20939;-78
2022/09/20 05:24:29;;;;;;;31.40;14.80;;;9.60;99.90;;;;;;2615097;54;20459;-77
2022/09/20 05:30:53;;;;;;;19.47;12.23;;;9.70;99.90;;;;;;2614730;54;20389;-75
2022/09/20 05:47:36;;;;;;;24.93;15.23;;;9.90;99.90;;;;;;2614080;54;20405;-73
2022/09/20 05:53:28;;;;;;;21.60;12.40;;;9.90;99.90;;;;;;2614185;54;20404;-74
2022/09/20 05:59:37;;;;;;;24.10;13.70;;;10.20;99.90;;;;;;2615178;39;20483;-76
2022/09/20 06:06:01;;;;;;;22.63;11.83;;;10.20;99.90;;;;;;2615060;54;20367;-75
2022/09/20 06:25:06;;;;;;;22.33;12.30;;;10.40;99.90;;;;;;2615904;54;20392;-75
2022/09/20 06:30:56;;;;;;;24.25;11.32;;;10.60;99.90;;;;;;2616132;54;20126;-74
2022/09/20 06:42:59;;;;;;;26.10;12.17;;;11.20;99.90;;;;;;2616284;54;20955;-74
2022/09/20 06:48:47;;;;;;;22.53;10.93;;;11.40;99.90;;;;;;2616051;39;20838;-76
2022/09/20 06:54:36;;;;;;;27.70;10.97;;;11.40;99.90;;;;;;2616014;54;20604;-74
2022/09/20 07:00:24;;;;;;;20.97;11.57;;;11.50;99.90;;;;;;2615585;54;20480;-75
2022/09/20 07:06:16;;;;;;;17.53;10.00;;;11.40;99.90;;;;;;2615290;54;20118;-74
2022/09/20 07:12:03;;;;;;;22.63;11.38;;;11.20;99.90;;;;;;2615821;54;20382;-74
2022/09/20 07:17:51;;;;;;;18.20;10.97;;;11.50;99.90;;;;;;2616080;54;20129;-77
2022/09/20 07:23:39;;;;;;;26.33;13.43;;;11.70;99.90;;;;;;2615681;54;20766;-76
2022/09/20 07:29:27;;;;;;;17.00;12.03;;;11.90;99.90;;;;;;2615872;54;20123;-73
2022/09/20 07:35:15;;;;;;;18.37;10.33;;;11.90;99.90;;;;;;2615792;54;21098;-75
2022/09/20 07:41:04;;;;;;;15.05;9.43;;;12.60;99.90;;;;;;2616178;54;20179;-76
2022/09/20 07:46:54;;;;;;;17.10;8.63;;;13.60;99.90;;;;;;2614536;54;20483;-76
2022/09/20 07:52:41;;;;;;;13.77;7.20;;;13.60;99.90;;;;;;2616045;54;20158;-75
2022/09/20 07:58:32;;;;;;;12.43;6.55;;;13.50;99.90;;;;;;2614932;54;20174;-75
2022/09/20 08:04:20;;;;;;;15.82;6.88;;;13.50;99.90;;;;;;2615866;54;20391;-74
2022/09/20 08:10:08;;;;;;;13.30;6.68;;;13.50;99.90;;;;;;2614875;54;20130;-74
2022/09/20 08:16:04;;;;;;;8.83;5.67;;;13.30;99.90;;;;;;2615779;54;20135;-76
2022/09/20 08:21:53;;;;;;;13.97;6.83;;;13.50;99.90;;;;;;2615186;54;20402;-75
2022/09/20 08:27:40;;;;;;;14.83;6.30;;;13.80;99.90;;;;;;2615483;54;20467;-74
2022/09/20 08:30:52;;;;;;;8.57;5.40;;;14.20;99.90;;;;;;2614655;54;20990;-76
2022/09/20 08:33:17;;;;;;;9.17;5.40;;;14.30;99.90;;;;;;2615769;54;20427;-76
2022/09/20 08:39:06;;;;;;;10.90;4.57;;;14.30;99.90;;;;;;2615984;54;20130;-75
2022/09/20 08:45:01;;;;;;;13.90;4.40;;;14.30;99.90;;;;;;2615518;54;20439;-76
2022/09/20 08:50:49;;;;;;;8.07;3.83;;;15.00;99.90;;;;;;2615565;39;20786;-77
2022/09/20 08:56:37;;;;;;;4.40;3.53;;;14.80;99.90;;;;;;2615639;54;20121;-75
2022/09/20 09:02:24;;;;;;;6.83;3.40;;;14.80;99.90;;;;;;2615154;39;20511;-76
2022/09/20 09:08:16;;;;;;;9.03;3.00;;;14.90;99.90;;;;;;2615500;54;20122;-75
2022/09/20 09:14:47;;;;;;;8.13;3.40;;;15.00;99.90;;;;;;2615175;54;20407;-76
2022/09/20 09:20:23;;;;;;;6.33;2.70;;;15.80;99.90;;;;;;2614600;54;20407;-75
2022/09/20 09:35:57;;;;;;;6.90;2.50;;;15.10;99.90;;;;;;2616002;54;20435;-75
2022/09/20 09:41:45;;;;;;;5.73;2.77;;;15.00;99.90;;;;;;2616094;54;20399;-74
2022/09/20 09:47:36;;;;;;;6.75;2.90;;;14.70;99.90;;;;;;2616383;54;20643;-76
2022/09/20 09:53:24;;;;;;;5.53;2.87;;;14.20;99.90;;;;;;2615546;54;21067;-77
2022/09/20 10:48:52;;;;;;;7.00;2.38;;;16.90;99.90;;;;;;2613089;54;20395;-77
2022/09/20 11:20:58;;;;;;;4.40;2.73;;;16.50;99.90;;;;;;2613941;54;20376;-76
2022/09/20 11:46:06;;;;;;;10.10;3.22;;;16.80;94.40;;;;;;2615514;54;20519;-75
2022/09/20 11:52:16;;;;;;;8.77;2.77;;;16.40;99.90;;;;;;2615873;54;21240;-75
2022/09/20 11:58:07;;;;;;;3.80;2.83;;;16.10;93.30;;;;;;2616196;54;20907;-75
2022/09/20 12:16:52;;;;;;;5.73;3.13;;;15.80;96.10;;;;;;2614329;54;20382;-75
2022/09/20 12:22:39;;;;;;;2.67;2.13;;;15.90;99.90;;;;;;2613831;54;20404;-75
2022/09/20 12:35:35;;;;;;;3.50;2.00;;;15.90;93.90;;;;;;2613528;54;20428;-75
2022/09/20 12:41:23;;;;;;;8.73;2.03;;;16.80;93.70;;;;;;2614305;54;20462;-75
2022/09/20 12:47:10;;;;;;;3.90;1.97;;;16.80;83.40;;;;;;2614024;54;20428;-75
2022/09/20 12:53:02;;;;;;;4.00;2.07;;;17.50;58.00;;;;;;2614634;54;20151;-75
2022/09/20 12:58:53;;;;;;;2.73;1.97;;;18.20;60.90;;;;;;2614073;54;20134;-74
2022/09/20 13:04:50;;;;;;;5.15;2.83;;;17.80;59.20;;;;;;2614022;54;20407;-75
2022/09/20 13:10:43;;;;;;;6.40;2.17;;;17.70;50.40;;;;;;2616047;54;20434;-74
2022/09/20 13:23:27;;;;;;;3.70;2.20;;;18.80;38.10;;;;;;2614520;54;20226;-76
2022/09/20 13:36:06;;;;;;;3.22;2.10;;;19.20;29.50;;;;;;2614331;54;21252;-74
2022/09/20 13:38:33;;;;;;;3.50;1.83;;;18.40;35.80;;;;;;2614653;54;20159;-75
2022/09/20 13:44:20;;;;;;;4.97;2.07;;;19.00;34.90;;;;;;2614667;54;20394;-75
2022/09/20 13:56:49;;;;;;;3.80;2.20;;;16.90;37.70;;;;;;2614690;54;20558;-75
2022/09/20 14:02:38;;;;;;;4.53;3.07;;;16.40;44.10;;;;;;2614986;54;20122;-75
2022/09/20 14:08:31;;;;;;;2.90;2.17;;;16.20;43.40;;;;;;2615617;39;20822;-74
2022/09/20 14:14:20;;;;;;;3.40;2.10;;;16.10;47.00;;;;;;2614443;54;20426;-75
2022/09/20 14:26:38;;;;;;;2.63;1.80;;;16.00;55.20;;;;;;2615021;54;20610;-75
2022/09/20 14:32:45;;;;;;;5.93;2.60;;;15.70;55.10;;;;;;2615690;39;20790;-75
2022/09/20 14:38:32;;;;;;;7.43;1.93;;;15.70;61.90;;;;;;2616831;39;20765;-75
2022/09/20 14:44:30;;;;;;;2.70;1.70;;;15.80;59.20;;;;;;2615916;54;20133;-74
2022/09/20 14:50:25;;;;;;;2.97;1.70;;;15.70;54.50;;;;;;2614074;54;20419;-75
2022/09/20 14:56:18;;;;;;;3.55;2.25;;;15.80;61.90;;;;;;2614503;54;20422;-74
2022/09/20 15:02:06;;;;;;;4.20;2.40;;;15.60;55.50;;;;;;2615047;46;20577;-74
2022/09/20 15:07:55;;;;;;;4.17;2.63;;;16.10;57.20;;;;;;2615315;54;20187;-78
2022/09/20 15:13:43;;;;;;;4.80;2.17;;;16.20;57.70;;;;;;2614645;54;20443;-74
2022/09/20 15:19:30;;;;;;;4.17;1.90;;;16.10;60.60;;;;;;2614312;54;20420;-76
2022/09/20 15:22:14;;;;;;;4.10;2.03;;;16.20;65.40;;;;;;2614359;54;20424;-74
2022/09/20 15:24:41;;;;;;;2.83;2.50;;;16.20;61.60;;;;;;2615404;39;20765;-76
2022/09/20 15:30:29;;;;;;;4.57;2.50;;;15.90;68.20;;;;;;2614224;54;21058;-75
2022/09/20 15:33:30;;;;;;;5.50;2.37;;;15.60;69.60;;;;;;2614944;54;20416;-75
2022/09/20 15:35:56;;;;;;;5.13;2.67;;;15.90;74.60;;;;;;2614006;47;20482;-74
2022/09/20 15:41:45;;;;;;;8.73;3.20;;;15.90;77.00;;;;;;2614865;54;20455;-74
2022/09/20 15:47:36;;;;;;;5.10;2.30;;;16.60;73.20;;;;;;2616447;54;20937;-74
2022/09/20 15:53:24;;;;;;;5.30;2.40;;;16.00;70.20;;;;;;2616247;54;20407;-73
2022/09/20 15:59:13;;;;;;;4.00;1.90;;;15.80;75.20;;;;;;2615762;54;20119;-73
2022/09/20 16:05:01;;;;;;;7.70;3.17;;;15.60;79.70;;;;;;2615702;54;20134;-75
2022/09/20 16:19:16;;;;;;;7.73;2.77;;;15.10;94.10;;;;;;2615477;54;20149;-74
2022/09/20 16:23:30;;;;;;;8.27;3.23;;;14.90;96.20;;;;;;2615953;54;20159;-74
2022/09/20 16:29:18;;;;;;;5.80;2.37;;;14.80;96.90;;;;;;2615359;46;20146;-73
2022/09/20 16:38:28;;;;;;;6.40;2.43;;;14.70;99.90;;;;;;2615333;54;20438;-74
2022/09/20 16:44:15;;;;;;;5.13;3.20;;;14.50;99.90;;;;;;2615640;54;20133;-74
2022/09/20 16:50:03;;;;;;;5.83;2.80;;;14.50;99.90;;;;;;2615546;54;20145;-74
2022/09/20 16:55:54;;;;;;;4.80;2.43;;;14.40;99.90;;;;;;2615357;54;20166;-74
2022/09/20 17:01:43;;;;;;;5.30;2.10;;;14.20;99.90;;;;;;2615131;54;20495;-74
2022/09/20 17:07:31;;;;;;;5.33;3.17;;;14.20;99.90;;;;;;2616068;54;20130;-75
2022/09/20 17:13:19;;;;;;;4.80;3.10;;;13.90;99.90;;;;;;2615284;54;20126;-75
2022/09/20 17:19:09;;;;;;;2.40;2.17;;;13.90;99.90;;;;;;2615333;54;20126;-73
2022/09/20 17:24:58;;;;;;;3.40;2.50;;;13.70;99.90;;;;;;2615842;39;20756;-74
2022/09/20 17:30:46;;;;;;;10.63;3.47;;;13.60;99.90;;;;;;2614529;54;20131;-75
2022/09/20 17:33:59;;;;;;;6.83;2.43;;;13.50;99.90;;;;;;2615338;54;20420;-75
2022/09/20 17:36:27;;;;;;;3.43;2.50;;;13.40;99.90;;;;;;2614545;54;20166;-74
2022/09/20 17:42:15;;;;;;;5.10;3.20;;;13.30;99.90;;;;;;2615384;54;20422;-75
2022/09/20 17:48:04;;;;;;;6.33;3.77;;;13.20;99.90;;;;;;2615671;54;20406;-74
2022/09/20 17:53:52;;;;;;;6.50;4.70;;;13.10;99.90;;;;;;2616749;54;20391;-74
2022/09/20 17:59:39;;;;;;;6.23;4.00;;;13.10;99.90;;;;;;2616525;54;20431;-73
2022/09/20 18:05:27;;;;;;;10.13;6.27;;;13.00;99.90;;;;;;2616840;39;20517;-74
2022/09/20 18:11:17;;;;;;;7.40;5.30;;;12.90;99.90;;;;;;2616635;54;20154;-75
2022/09/20 18:17:05;;;;;;;9.50;8.20;;;12.80;99.90;;;;;;2616521;54;20150;-74
2022/09/20 18:22:53;;;;;;;22.53;20.40;;;12.60;99.90;;;;;;2616904;39;20785;-74
2022/09/20 18:28:40;;;;;;;8.60;7.67;;;12.50;99.90;;;;;;2616192;54;20154;-74
2022/09/20 18:38:31;;;;;;;7.10;6.57;;;12.20;99.90;;;;;;2616128;54;20138;-74
2022/09/20 18:44:20;;;;;;;10.48;5.65;;;12.00;99.90;;;;;;2616020;54;20375;-75
2022/09/20 18:50:10;;;;;;;10.20;6.73;;;11.90;99.90;;;;;;2615878;54;20675;-76
2022/09/20 19:22:04;;;;;;;7.87;5.90;;;11.30;99.90;;;;;;2616090;54;20150;-74
2022/09/20 19:27:52;;;;;;;9.73;5.50;;;11.30;99.90;;;;;;2615128;54;20209;-74
2022/09/20 19:33:40;;;;;;;6.60;5.90;;;11.20;99.90;;;;;;2615793;54;20400;-74
2022/09/20 19:39:34;;;;;;;9.67;7.03;;;11.00;99.90;;;;;;2615643;54;20146;-74
2022/09/20 19:51:56;;;;;;;8.80;5.30;;;10.50;99.90;;;;;;2615943;54;20956;-74
2022/09/20 19:57:46;;;;;;;10.85;6.07;;;10.30;99.90;;;;;;2615923;54;20391;-74
2022/09/20 20:03:34;;;;;;;10.07;6.47;;;10.10;99.90;;;;;;2616463;54;20395;-75
2022/09/20 20:29:03;;;;;;;15.13;5.93;;;9.50;99.90;;;;;;2615617;54;20423;-74
2022/09/20 20:38:36;;;;;;;8.93;7.43;;;9.30;99.90;;;;;;2615427;54;20143;-77
2022/09/20 20:44:23;;;;;;;13.80;7.10;;;9.20;99.90;;;;;;2614101;54;20404;-75
2022/09/20 20:50:11;;;;;;;9.50;6.97;;;9.00;99.90;;;;;;2612788;54;20415;-75
2022/09/20 20:59:20;;;;;;;12.10;7.87;;;9.20;99.90;;;;;;2613733;54;20419;-74
2022/09/20 21:05:08;;;;;;;12.50;7.87;;;9.20;99.90;;;;;;2613405;54;20990;-74
2022/09/20 21:11:00;;;;;;;13.73;6.93;;;9.20;99.90;;;;;;2613792;54;21063;-74
2022/09/20 21:16:50;;;;;;;9.60;6.30;;;9.20;99.90;;;;;;2615606;54;20368;-74
2022/09/20 21:22:38;;;;;;;11.88;6.05;;;8.90;99.90;;;;;;2615976;39;21088;-74
2022/09/20 21:28:26;;;;;;;8.00;6.43;;;8.90;99.90;;;;;;2616052;54;20788;-73
2022/09/20 21:44:36;;;;;;;8.40;6.77;;;8.50;99.90;;;;;;2614483;54;20389;-74
2022/09/20 21:50:23;;;;;;;7.27;6.60;;;8.30;99.90;;;;;;2614560;54;20151;-75
2022/09/20 21:56:12;;;;;;;13.60;7.80;;;8.30;99.90;;;;;;2614881;54;20133;-74
2022/09/20 22:01:59;;;;;;;11.07;7.13;;;8.10;99.90;;;;;;2615095;54;20391;-74
2022/09/20 22:07:46;;;;;;;16.65;7.63;;;8.10;99.90;;;;;;2615598;39;20532;-74
2022/09/20 22:13:37;;;;;;;13.80;7.00;;;7.90;99.90;;;;;;2614791;54;20133;-73
2022/09/20 22:19:25;;;;;;;13.27;8.27;;;7.90;99.90;;;;;;2616017;46;20145;-75
2022/09/20 22:25:12;;;;;;;13.40;8.02;;;7.80;99.90;;;;;;2616894;54;20626;-75
2022/09/20 22:31:07;;;;;;;13.80;9.47;;;8.10;99.90;;;;;;2616228;54;20153;-75
2022/09/20 22:34:00;;;;;;;12.77;9.47;;;8.10;99.90;;;;;;2616517;54;20391;-74
2022/09/20 22:43:02;;;;;;;13.30;8.27;;;7.90;99.90;;;;;;2616519;54;20420;-75
2022/09/20 22:48:50;;;;;;;14.67;10.20;;;7.70;99.90;;;;;;2616246;46;20152;-75
2022/09/20 22:54:37;;;;;;;11.55;8.98;;;7.70;99.90;;;;;;2616178;54;20143;-74
2022/09/20 23:00:25;;;;;;;14.23;8.60;;;7.70;99.90;;;;;;2615764;54;20645;-73
2022/09/20 23:06:21;;;;;;;15.50;9.20;;;7.70;99.90;;;;;;2616177;54;20154;-74
2022/09/20 23:12:08;;;;;;;12.90;10.33;;;7.70;99.90;;;;;;2616487;54;20383;-74
2022/09/20 23:17:56;;;;;;;13.83;9.73;;;7.60;99.90;;;;;;2616273;39;20871;-74
2022/09/20 23:23:44;;;;;;;13.47;10.17;;;7.50;99.90;;;;;;2616255;54;20148;-74
2022/09/20 23:29:32;;;;;;;11.70;10.50;;;7.50;99.90;;;;;;2615396;54;20916;-74
2022/09/20 23:38:46;;;;;;;17.40;13.23;;;7.40;99.90;;;;;;2615825;54;20453;-75
2022/09/20 23:44:34;;;;;;;15.30;12.00;;;7.30;99.90;;;;;;2615768;54;20391;-74
2022/09/20 23:50:24;;;;;;;13.80;10.53;;;7.30;99.90;;;;;;2616075;54;20150;-74
2022/09/20 23:56:12;;;;;;;17.33;9.50;;;7.10;99.90;;;;;;2616440;39;21009;-73
